Time;durP1;ratioP1;P1;durP2;ratioP2;P2;SDS_P1;SDS_P2;PMS_P1;PMS_P2;Temp;Humidity;BMP_temperature;BMP_pressure;BME280_temperature;BME280_humidity;BME280_pressure;Samples;Min_cycle;Max_cycle;Signal;HPM_P1;HPM_P2
2024/04/01 00:00:01;;;;;;;49.30;14.00;;;;;;;11.24;100.00;98483.31;182676;1231;46024;-88
2024/04/01 00:04:04;;;;;;;36.20;11.30;;;;;;;11.37;100.00;98479.41;182800;1235;60094;-86
2024/04/01 00:08:06;;;;;;;36.10;13.20;;;;;;;11.39;100.00;98476.52;182023;1231;46187;-85
2024/04/01 00:12:07;;;;;;;38.90;12.10;;;;;;;11.35;100.00;98472.38;182468;1231;46057;-83
2024/04/01 00:16:09;;;;;;;53.00;17.10;;;;;;;11.36;100.00;98472.30;182445;1231;46209;-86
2024/04/01 00:20:11;;;;;;;67.90;20.00;;;;;;;11.36;100.00;98474.07;182123;1235;46251;-87
2024/04/01 00:24:12;;;;;;;68.00;20.10;;;;;;;11.38;100.00;98482.17;182251;1235;57419;-88
2024/04/01 00:28:15;;;;;;;55.20;18.50;;;;;;;11.44;100.00;98494.78;185484;1231;43971;-88
2024/04/01 00:32:16;;;;;;;60.90;18.80;;;;;;;11.49;100.00;98497.75;184440;1235;45948;-86
2024/04/01 00:36:18;;;;;;;61.70;21.40;;;;;;;11.52;100.00;98491.08;182406;1232;45970;-87
2024/04/01 00:40:20;;;;;;;65.20;24.90;;;;;;;11.50;100.00;98485.69;182170;1235;46062;-86
2024/04/01 00:44:21;;;;;;;67.50;19.70;;;;;;;11.48;100.00;98489.88;182423;1232;58204;-87
2024/04/01 00:48:23;;;;;;;88.90;15.00;;;;;;;11.46;100.00;98484.29;182439;1231;45983;-86
2024/04/01 00:52:27;;;;;;;36.10;12.80;;;;;;;11.49;100.00;98473.69;182612;1232;46089;-86
2024/04/01 00:56:31;;;;;;;46.70;15.00;;;;;;;11.61;100.00;98467.81;182367;1235;46139;-87
2024/04/01 01:00:33;;;;;;;41.10;14.20;;;;;;;11.63;100.00;98463.35;182295;1231;45995;-86
2024/04/01 01:04:36;;;;;;;53.80;14.30;;;;;;;11.57;100.00;98459.38;182397;1235;58055;-87
2024/04/01 01:08:38;;;;;;;28.10;11.20;;;;;;;11.39;100.00;98456.52;182453;1231;46090;-88
2024/04/01 01:12:40;;;;;;;51.90;13.30;;;;;;;11.26;100.00;98452.43;182426;1231;45936;-87
2024/04/01 01:16:42;;;;;;;45.40;12.50;;;;;;;11.21;100.00;98445.02;182444;1232;46005;-87
2024/04/01 01:20:44;;;;;;;44.70;12.10;;;;;;;11.21;100.00;98426.75;182478;1231;46254;-86
2024/04/01 01:24:46;;;;;;;36.50;13.30;;;;;;;11.26;100.00;98407.75;182616;1231;58306;-86
2024/04/01 01:28:50;;;;;;;38.90;10.00;;;;;;;11.32;100.00;98408.84;182444;1231;45973;-85
2024/04/01 01:32:55;;;;;;;44.10;11.10;;;;;;;11.37;100.00;98411.60;182437;1235;46790;-87
2024/04/01 01:36:58;;;;;;;42.60;11.90;;;;;;;11.40;100.00;98409.55;182649;1231;46151;-86
2024/04/01 01:40:59;;;;;;;38.30;11.40;;;;;;;11.37;100.00;98402.08;182765;1232;46047;-86
2024/04/01 01:45:03;;;;;;;44.30;12.00;;;;;;;11.30;100.00;98398.41;182163;1232;58456;-86
2024/04/01 01:49:06;;;;;;;32.80;12.70;;;;;;;11.17;100.00;98402.42;182303;1231;45980;-87
2024/04/01 01:53:09;;;;;;;44.90;12.50;;;;;;;11.08;100.00;98402.00;182393;1231;46252;-87
2024/04/01 01:57:12;;;;;;;35.40;12.70;;;;;;;10.88;100.00;98401.21;182227;1231;46196;-86
2024/04/01 02:01:13;;;;;;;34.90;11.30;;;;;;;10.77;100.00;98400.34;182619;1231;46069;-83
2024/04/01 02:05:15;;;;;;;59.80;19.30;;;;;;;10.77;100.00;98395.48;182259;1231;58204;-85
2024/04/01 02:09:17;;;;;;;26.90;11.50;;;;;;;10.81;100.00;98397.00;182361;1231;46059;-86
2024/04/01 02:13:20;;;;;;;35.60;8.60;;;;;;;10.80;100.00;98393.38;182344;1235;46526;-87
2024/04/01 02:17:22;;;;;;;35.80;11.60;;;;;;;10.79;100.00;98386.75;182097;1236;46089;-84
2024/04/01 02:21:23;;;;;;;35.50;11.00;;;;;;;10.80;100.00;98383.52;182232;1235;45980;-85
2024/04/01 02:25:25;;;;;;;31.90;10.40;;;;;;;10.81;100.00;98382.86;182484;1231;57970;-90
2024/04/01 02:29:27;;;;;;;22.80;9.50;;;;;;;10.81;100.00;98383.01;181800;1236;45988;-88
2024/04/01 02:33:29;;;;;;;30.30;9.50;;;;;;;10.84;100.00;98377.24;182192;1235;46091;-86
2024/04/01 02:37:31;;;;;;;35.70;11.20;;;;;;;10.75;100.00;98382.95;184281;1231;46178;-88
2024/04/01 02:41:32;;;;;;;35.50;10.40;;;;;;;10.62;100.00;98383.15;183562;1231;44182;-85
2024/04/01 02:45:34;;;;;;;29.70;12.20;;;;;;;10.51;100.00;98378.91;182304;1232;58158;-86
2024/04/01 02:49:36;;;;;;;36.10;9.50;;;;;;;10.50;100.00;98373.40;182426;1231;46037;-86
2024/04/01 02:53:37;;;;;;;35.10;9.60;;;;;;;10.53;100.00;98357.90;182375;1231;46203;-86
2024/04/01 02:57:39;;;;;;;28.60;9.60;;;;;;;10.56;100.00;98347.11;182363;1231;46086;-86
2024/04/01 03:01:41;;;;;;;28.70;8.60;;;;;;;10.60;100.00;98340.65;182139;1231;46049;-84
2024/04/01 03:05:43;;;;;;;41.90;8.50;;;;;;;10.64;100.00;98331.17;182341;1237;59305;-83
2024/04/01 03:09:45;;;;;;;24.50;6.90;;;;;;;10.61;100.00;98329.73;182273;1231;46181;-83
2024/04/01 03:13:48;;;;;;;22.60;7.30;;;;;;;10.63;100.00;98335.36;182332;1232;46095;-83
2024/04/01 03:17:50;;;;;;;34.90;8.50;;;;;;;10.72;100.00;98336.90;182546;1231;46110;-83
2024/04/01 03:21:52;;;;;;;20.00;7.60;;;;;;;10.80;100.00;98344.64;182210;1232;46013;-84
2024/04/01 03:25:54;;;;;;;35.40;9.50;;;;;;;10.83;100.00;98347.52;182555;1231;59328;-84
2024/04/01 03:29:56;;;;;;;35.20;9.10;;;;;;;10.78;100.00;98353.52;182731;1231;45980;-86
2024/04/01 03:33:58;;;;;;;24.20;7.20;;;;;;;10.75;100.00;98364.05;182601;1236;46120;-84
2024/04/01 03:38:00;;;;;;;17.60;8.30;;;;;;;10.71;100.00;98361.94;182310;1232;46095;-82
2024/04/01 03:42:02;;;;;;;25.40;9.80;;;;;;;10.70;100.00;98362.91;182433;1231;46094;-82
2024/04/01 03:46:04;;;;;;;32.40;10.00;;;;;;;10.74;100.00;98354.70;182506;1231;59379;-84
2024/04/01 03:50:06;;;;;;;37.90;9.50;;;;;;;10.79;100.00;98347.56;182340;1232;46069;-85
2024/04/01 03:54:08;;;;;;;22.50;8.20;;;;;;;10.85;100.00;98344.41;182469;1231;45987;-83
2024/04/01 03:58:10;;;;;;;21.50;6.20;;;;;;;10.88;100.00;98339.70;182326;1236;46030;-84
2024/04/01 04:02:11;;;;;;;23.30;9.30;;;;;;;10.92;100.00;98356.97;182391;1231;46644;-83
2024/04/01 04:06:13;;;;;;;21.30;8.60;;;;;;;10.81;100.00;98359.46;182435;1231;60008;-85
2024/04/01 04:10:15;;;;;;;29.90;7.60;;;;;;;10.60;100.00;98349.73;182362;1231;46024;-85
2024/04/01 04:14:26;;;;;;;28.00;11.20;;;;;;;10.51;100.00;98352.53;182189;1231;46299;-86
2024/04/01 04:18:28;;;;;;;20.50;7.40;;;;;;;10.46;100.00;98347.77;182253;1237;45998;-84
2024/04/01 04:22:32;;;;;;;22.70;7.10;;;;;;;10.41;100.00;98332.85;182270;1232;46021;-89
2024/04/01 04:26:35;;;;;;;34.50;7.70;;;;;;;10.40;100.00;98329.08;183384;1235;58821;-90
2024/04/01 04:30:37;;;;;;;25.80;7.10;;;;;;;10.41;100.00;98331.63;182910;1235;46009;-84
2024/04/01 04:34:40;;;;;;;33.30;8.10;;;;;;;10.46;100.00;98307.52;182410;1231;46232;-85
2024/04/01 04:38:41;;;;;;;26.70;8.40;;;;;;;10.50;100.00;98295.34;182582;1234;46106;-83
2024/04/01 04:42:44;;;;;;;27.20;6.40;;;;;;;10.52;100.00;98313.02;181945;1231;45989;-85
2024/04/01 04:46:45;;;;;;;24.40;7.00;;;;;;;10.58;100.00;98308.83;182646;1231;59819;-86
2024/04/01 04:50:47;;;;;;;22.90;7.60;;;;;;;10.67;100.00;98302.50;183321;1231;46104;-84
2024/04/01 04:54:49;;;;;;;25.70;7.30;;;;;;;10.76;100.00;98300.45;182440;1231;46040;-79
2024/04/01 04:58:53;;;;;;;17.10;6.30;;;;;;;10.72;100.00;98319.26;183052;1234;46068;-86
2024/04/01 05:02:55;;;;;;;25.70;6.70;;;;;;;10.72;100.00;98312.23;182349;1231;46098;-87
2024/04/01 05:06:56;;;;;;;18.00;6.30;;;;;;;10.81;100.00;98302.67;182520;1235;59388;-86
2024/04/01 05:10:58;;;;;;;22.80;7.10;;;;;;;10.92;100.00;98309.06;182423;1232;45963;-86
2024/04/01 05:15:00;;;;;;;16.70;6.80;;;;;;;11.01;100.00;98300.61;182473;1231;46031;-85
2024/04/01 05:19:01;;;;;;;30.90;6.90;;;;;;;11.08;100.00;98281.58;182666;1232;45917;-84
2024/04/01 05:23:04;;;;;;;17.70;5.00;;;;;;;11.13;100.00;98272.80;182252;1232;46022;-83
2024/04/01 05:27:06;;;;;;;21.40;4.70;;;;;;;11.19;100.00;98280.25;182221;1232;59252;-84
2024/04/01 05:31:07;;;;;;;22.30;5.80;;;;;;;11.27;100.00;98289.91;182172;1236;45979;-84
2024/04/01 05:35:11;;;;;;;16.90;4.70;;;;;;;11.39;100.00;98296.98;182419;1235;46004;-86
2024/04/01 05:39:13;;;;;;;31.10;6.20;;;;;;;11.49;100.00;98288.12;182279;1237;46264;-83
2024/04/01 05:43:15;;;;;;;14.80;5.40;;;;;;;11.73;100.00;98277.56;183349;1232;46081;-85
2024/04/01 05:47:17;;;;;;;21.90;5.00;;;;;;;11.97;100.00;98274.50;182333;1231;58274;-86
2024/04/01 05:51:18;;;;;;;12.80;4.40;;;;;;;12.07;100.00;98264.58;182149;1232;46110;-86
2024/04/01 05:55:21;;;;;;;16.60;5.50;;;;;;;12.17;100.00;98253.14;182270;1232;46099;-84
2024/04/01 05:59:25;;;;;;;25.60;4.90;;;;;;;12.28;100.00;98259.50;182324;1236;46162;-83
2024/04/01 06:03:27;;;;;;;25.00;5.60;;;;;;;12.35;100.00;98258.63;182487;1232;46171;-83
2024/04/01 06:07:29;;;;;;;18.90;5.70;;;;;;;12.39;100.00;98280.15;182430;1233;57284;-83
2024/04/01 06:11:31;;;;;;;24.20;6.00;;;;;;;12.43;100.00;98271.90;182308;1232;248023;-88
2024/04/01 06:15:33;;;;;;;20.20;6.20;;;;;;;12.46;100.00;98270.45;182125;1231;46139;-82
2024/04/01 06:19:34;;;;;;;13.10;5.40;;;;;;;12.45;100.00;98250.87;182111;1238;46097;-83
2024/04/01 06:23:36;;;;;;;17.60;5.70;;;;;;;12.47;100.00;98239.45;182338;1231;46060;-84
2024/04/01 06:27:38;;;;;;;23.70;6.60;;;;;;;12.52;100.00;98246.77;182123;1235;57494;-84
2024/04/01 06:31:40;;;;;;;24.30;6.00;;;;;;;12.55;100.00;98255.55;182711;1235;46108;-85
2024/04/01 06:35:41;;;;;;;23.50;6.60;;;;;;;12.60;100.00;98263.42;182358;1232;46034;-85
2024/04/01 06:39:43;;;;;;;53.70;22.00;;;;;;;12.62;100.00;98277.73;182179;1237;45960;-85
2024/04/01 06:43:45;;;;;;;16.80;13.90;;;;;;;12.68;100.00;98287.36;182977;1231;46022;-87
2024/04/01 06:47:47;;;;;;;24.40;15.80;;;;;;;12.85;100.00;98294.02;182482;1232;59427;-86
2024/04/01 06:51:49;;;;;;;22.00;9.30;;;;;;;13.09;100.00;98312.23;182105;1238;46193;-86
2024/04/01 06:55:51;;;;;;;18.50;8.10;;;;;;;13.29;100.00;98315.41;182651;1235;46013;-84
2024/04/01 06:59:53;;;;;;;16.20;5.80;;;;;;;13.40;100.00;98311.11;183271;1232;46143;-85
2024/04/01 07:03:55;;;;;;;17.40;6.10;;;;;;;13.59;100.00;98309.61;184968;1232;46507;-88
2024/04/01 07:07:57;;;;;;;16.80;9.20;;;;;;;13.85;100.00;98294.81;183034;1232;57984;-85
2024/04/01 07:11:59;;;;;;;25.10;7.00;;;;;;;14.05;100.00;98284.34;182289;1236;46289;-86
2024/04/01 07:16:01;;;;;;;16.50;6.30;;;;;;;14.21;100.00;98291.65;182074;1235;46078;-84
2024/04/01 07:20:04;;;;;;;15.30;6.40;;;;;;;14.37;100.00;98295.08;182349;1237;45999;-84
2024/04/01 07:24:07;;;;;;;21.10;6.20;;;;;;;14.56;100.00;98304.91;182978;1232;46002;-88
2024/04/01 07:28:08;;;;;;;12.30;5.00;;;;;;;14.86;99.63;98298.81;182641;1231;57328;-85
2024/04/01 07:32:10;;;;;;;20.00;4.80;;;;;;;15.08;98.13;98287.07;182428;1235;46200;-88
2024/04/01 07:36:12;;;;;;;14.40;4.80;;;;;;;15.24;96.09;98268.49;182278;1234;45989;-88
2024/04/01 07:40:14;;;;;;;14.40;5.20;;;;;;;15.40;94.94;98245.84;182526;1231;46037;-84
2024/04/01 07:44:16;;;;;;;16.20;5.50;;;;;;;15.47;92.46;98237.75;183429;1235;46088;-87
2024/04/01 07:48:18;;;;;;;10.90;4.10;;;;;;;15.51;93.25;98237.91;182834;1231;57917;-86
2024/04/01 07:52:21;;;;;;;13.30;5.50;;;;;;;15.46;94.32;98240.93;182537;1231;46015;-89
2024/04/01 07:56:23;;;;;;;14.50;4.90;;;;;;;15.52;94.78;98239.59;183310;1236;46026;-84
2024/04/01 08:00:25;;;;;;;30.10;6.00;;;;;;;15.55;95.21;98241.41;182609;1231;45832;-88
2024/04/01 08:04:27;;;;;;;18.50;7.70;;;;;;;15.54;94.72;98238.61;183447;1236;45838;-88
2024/04/01 08:08:29;;;;;;;39.10;16.40;;;;;;;15.58;94.53;98231.89;182899;1232;59519;-89
2024/04/01 08:12:31;;;;;;;51.90;25.30;;;;;;;15.71;95.04;98200.89;182839;1232;45927;-87
2024/04/01 08:16:33;;;;;;;50.90;19.90;;;;;;;15.88;96.79;98189.34;182832;1236;46129;-86
2024/04/01 08:20:35;;;;;;;125.80;66.50;;;;;;;16.08;98.01;98167.48;182580;1231;46149;-85
2024/04/01 08:24:36;;;;;;;42.90;17.60;;;;;;;16.25;96.50;98150.90;182444;1232;46098;-85
2024/04/01 08:28:38;;;;;;;32.90;16.60;;;;;;;16.38;96.48;98142.83;182600;1232;59479;-83
2024/04/01 08:32:40;;;;;;;31.30;9.60;;;;;;;16.48;96.65;98141.61;183595;1235;46123;-88
2024/04/01 08:36:42;;;;;;;31.30;10.60;;;;;;;16.62;97.01;98143.41;183913;1232;45944;-85
2024/04/01 08:40:55;;;;;;;31.70;11.90;;;;;;;16.77;96.09;98153.70;182700;1232;45973;-87
2024/04/01 08:45:00;;;;;;;39.50;15.00;;;;;;;16.94;95.49;98158.60;182699;1232;44631;-87
2024/04/01 08:49:06;;;;;;;30.30;8.50;;;;;;;17.04;93.69;98170.98;182779;1232;59426;-88
2024/04/01 08:53:17;;;;;;;32.30;9.00;;;;;;;17.12;92.82;98177.45;184135;1235;46152;-84
2024/04/01 08:57:20;;;;;;;35.20;9.30;;;;;;;17.20;92.18;98176.67;182664;1232;46766;-84
2024/04/01 09:01:22;;;;;;;38.70;10.50;;;;;;;17.26;90.38;98169.29;183532;1235;46071;-88
2024/04/01 09:05:24;;;;;;;37.90;10.70;;;;;;;17.33;89.03;98160.22;182667;1232;46005;-87
2024/04/01 09:09:29;;;;;;;25.80;9.20;;;;;;;17.41;89.64;98159.69;184635;1232;59371;-90
2024/04/01 09:13:32;;;;;;;30.40;7.80;;;;;;;17.51;89.85;98147.47;184036;1231;45338;-89
2024/04/01 09:17:33;;;;;;;28.30;9.80;;;;;;;17.65;89.94;98154.70;183849;1234;46116;-86
2024/04/01 09:21:38;;;;;;;25.00;8.90;;;;;;;17.75;88.27;98145.52;185279;1231;88683;-63
2024/04/01 09:25:40;;;;;;;34.00;10.10;;;;;;;17.84;87.34;98141.80;184564;1232;46015;-92
2024/04/01 09:29:47;;;;;;;38.30;10.40;;;;;;;17.92;86.42;98121.42;186325;1231;87917;-64
2024/04/01 09:33:49;;;;;;;42.60;17.70;;;;;;;17.94;85.74;98111.30;184530;1231;46054;-84
2024/04/01 09:37:51;;;;;;;58.10;26.40;;;;;;;17.92;85.99;98105.61;184008;1231;46020;-83
2024/04/01 09:41:53;;;;;;;85.90;46.70;;;;;;;17.91;85.35;98117.63;184059;1234;46098;-86
2024/04/01 09:45:59;;;;;;;73.30;29.60;;;;;;;18.05;85.25;98120.23;183391;1231;45987;-88
2024/04/01 09:50:07;;;;;;;40.10;13.30;;;;;;;18.26;82.03;98104.84;185314;1235;59909;-89
2024/04/01 09:54:10;;;;;;;24.70;9.90;;;;;;;18.46;83.01;98088.51;186154;1231;44757;-89
2024/04/01 09:58:32;;;;;;;29.20;8.80;;;;;;;18.66;82.94;98089.56;185137;1231;43964;-86
2024/04/01 10:02:55;;;;;;;26.70;8.90;;;;;;;18.77;81.63;98074.39;183059;1231;45987;-82
2024/04/01 10:07:32;;;;;;;28.50;9.30;;;;;;;18.81;83.08;98064.38;183790;1231;45992;-82
2024/04/01 10:12:07;;;;;;;36.00;7.30;;;;;;;18.77;83.67;98053.38;182918;1232;58492;-81
2024/04/01 10:16:29;;;;;;;31.40;8.10;;;;;;;18.78;85.86;98063.02;182751;1234;45964;-82
2024/04/01 10:21:06;;;;;;;23.00;7.10;;;;;;;18.91;86.98;98051.70;183131;1231;45932;-82
2024/04/01 10:25:08;;;;;;;31.90;9.30;;;;;;;19.28;86.73;98033.97;182425;1232;46101;-81
2024/04/01 10:29:25;;;;;;;28.70;7.90;;;;;;;19.69;84.75;98047.98;183122;1235;46706;-85
2024/04/01 10:33:55;;;;;;;38.40;9.50;;;;;;;20.07;83.83;98055.50;182938;1231;57815;-82
2024/04/01 10:38:09;;;;;;;32.90;11.10;;;;;;;20.38;82.53;98045.17;183324;1235;46145;-82
2024/04/01 10:42:32;;;;;;;38.60;10.30;;;;;;;20.55;83.41;98043.27;183400;1231;46081;-82
2024/04/01 10:47:00;;;;;;;40.50;11.90;;;;;;;20.56;81.98;98045.13;183622;1231;46066;-82
2024/04/01 10:51:21;;;;;;;36.50;11.50;;;;;;;20.66;81.36;98047.45;183352;1231;46082;-82
2024/04/01 10:55:35;;;;;;;40.00;15.10;;;;;;;20.75;83.63;98061.20;183729;1235;58241;-81
2024/04/01 11:00:11;;;;;;;44.90;12.20;;;;;;;20.72;84.92;98057.80;183562;1231;45194;-81
2024/04/01 11:04:16;;;;;;;44.30;13.70;;;;;;;20.77;80.48;98052.63;183537;1231;46117;-81
2024/04/01 11:08:41;;;;;;;37.60;11.30;;;;;;;20.97;80.22;98052.19;183836;1231;45950;-81
2024/04/01 11:13:20;;;;;;;46.60;12.30;;;;;;;21.34;78.85;98030.27;184087;1234;45993;-81
2024/04/01 11:17:22;;;;;;;53.90;15.80;;;;;;;21.78;79.31;98020.30;183868;1236;58158;-81
2024/04/01 11:21:33;;;;;;;36.50;12.00;;;;;;;22.17;75.24;98015.14;182839;1231;46130;-81
2024/04/01 11:25:35;;;;;;;58.60;12.20;;;;;;;22.67;74.28;98004.54;183345;1231;45938;-81
2024/04/01 11:29:55;;;;;;;38.10;9.90;;;;;;;23.05;71.30;97986.10;183998;1235;46091;-81
2024/04/01 11:34:00;;;;;;;36.40;11.20;;;;;;;23.29;68.86;97975.43;184318;1231;44166;-80
2024/04/01 11:38:13;;;;;;;30.10;9.70;;;;;;;23.41;67.19;97981.28;184244;1235;58290;-80
2024/04/01 11:42:19;;;;;;;31.50;8.90;;;;;;;23.54;68.99;97983.96;183527;1231;45880;-80
2024/04/01 11:46:22;;;;;;;25.50;10.60;;;;;;;23.71;68.07;97972.13;183693;1232;45942;-81
2024/04/01 11:50:24;;;;;;;37.80;11.60;;;;;;;23.72;67.83;97961.70;182949;1235;46055;-81
2024/04/01 11:54:26;;;;;;;37.50;11.50;;;;;;;23.69;67.37;97959.21;184029;1231;46054;-81
2024/04/01 11:58:28;;;;;;;38.70;12.30;;;;;;;23.68;68.54;97953.77;184613;1231;58204;-80
2024/04/01 12:02:30;;;;;;;25.10;9.10;;;;;;;23.74;68.15;97957.21;185062;1231;44049;-81
2024/04/01 12:06:34;;;;;;;35.00;11.60;;;;;;;23.71;68.46;97966.75;185618;1231;45967;-80
2024/04/01 12:10:36;;;;;;;48.00;13.50;;;;;;;23.70;70.75;97962.02;185164;1231;43681;-81
2024/04/01 12:14:38;;;;;;;44.20;11.40;;;;;;;23.69;70.06;97957.10;184927;1231;44843;-81
2024/04/01 12:18:43;;;;;;;35.60;10.50;;;;;;;23.76;70.25;97945.15;184885;1231;58980;-81
2024/04/01 12:22:47;;;;;;;40.40;12.40;;;;;;;23.86;72.18;97954.13;184743;1231;46196;-80
2024/04/01 12:26:52;;;;;;;30.80;10.70;;;;;;;24.02;73.31;97950.24;184627;1231;46225;-81
2024/04/01 12:30:58;;;;;;;36.80;9.80;;;;;;;24.13;73.85;97960.02;184442;1235;44764;-81
2024/04/01 12:35:02;;;;;;;31.10;10.20;;;;;;;24.26;69.68;97960.77;184740;1231;46034;-81
2024/04/01 12:39:04;;;;;;;30.80;8.10;;;;;;;24.41;69.46;97968.21;184594;1231;58031;-80
2024/04/01 12:43:05;;;;;;;29.50;8.00;;;;;;;24.58;67.51;97981.71;184730;1235;46035;-81
2024/04/01 12:47:08;;;;;;;28.70;8.50;;;;;;;24.70;68.17;97985.98;185039;1235;46094;-81
2024/04/01 12:51:11;;;;;;;27.60;7.60;;;;;;;24.73;69.21;97977.64;185241;1235;45932;-81
2024/04/01 12:55:24;;;;;;;21.00;8.40;;;;;;;24.68;66.37;97990.65;185198;1231;44705;-81
2024/04/01 12:59:47;;;;;;;24.20;7.30;;;;;;;24.57;62.83;97985.63;184651;1235;57968;-81
2024/04/01 13:04:08;;;;;;;21.90;6.90;;;;;;;24.44;62.85;97985.70;184862;1231;46086;-81
2024/04/01 13:08:43;;;;;;;30.60;7.00;;;;;;;24.29;62.07;97983.59;184904;1231;46028;-81
2024/04/01 13:12:53;;;;;;;34.00;9.40;;;;;;;24.15;62.54;97985.11;184932;1231;46116;-81
2024/04/01 13:17:15;;;;;;;18.70;6.40;;;;;;;24.08;62.76;97981.48;185437;1231;45941;-81
2024/04/01 13:21:48;;;;;;;25.30;8.50;;;;;;;23.97;63.30;97974.82;184632;1231;58124;-80
2024/04/01 13:25:57;;;;;;;27.00;7.80;;;;;;;23.92;64.55;97977.48;184734;1231;46088;-81
2024/04/01 13:30:36;;;;;;;32.60;9.80;;;;;;;23.86;65.77;97984.85;184852;1231;44753;-81
2024/04/01 13:35:10;;;;;;;28.90;7.80;;;;;;;23.83;67.21;97976.65;184887;1231;45992;-81
2024/04/01 13:39:16;;;;;;;28.30;6.50;;;;;;;23.72;69.57;97980.92;184911;1231;46062;-81
2024/04/01 13:43:30;;;;;;;27.70;8.80;;;;;;;23.55;70.65;97988.43;184814;1231;57713;-81
2024/04/01 13:48:20;;;;;;;29.20;9.20;;;;;;;23.27;68.16;97983.77;184797;1235;45942;-81
2024/04/01 13:52:32;;;;;;;27.60;8.40;;;;;;;22.95;64.80;97978.25;183738;1240;46096;-80
2024/04/01 13:56:39;;;;;;;38.80;8.10;;;;;;;22.79;64.26;97978.17;183359;1238;45971;-81
2024/04/01 14:00:59;;;;;;;48.00;8.60;;;;;;;22.65;63.66;97973.83;183412;1239;45964;-81
2024/04/01 14:05:12;;;;;;;26.50;8.80;;;;;;;22.55;64.39;97960.75;183395;1238;57876;-81
2024/04/01 14:09:43;;;;;;;28.10;8.80;;;;;;;22.43;64.21;97942.23;183384;1238;46062;-81
2024/04/01 14:13:53;;;;;;;35.20;9.10;;;;;;;22.29;65.37;97947.94;183520;1238;45847;-81
2024/04/01 14:18:27;;;;;;;30.80;8.90;;;;;;;22.11;67.65;97972.42;183552;1238;45883;-81
2024/04/01 14:22:29;;;;;;;32.20;10.80;;;;;;;21.91;69.37;97980.27;183114;1240;45991;-81
2024/04/01 14:26:31;;;;;;;34.70;9.70;;;;;;;21.72;69.81;97980.48;183591;1231;57982;-81
2024/04/01 14:30:33;;;;;;;26.40;8.90;;;;;;;21.56;70.78;97990.09;183445;1231;44747;-81
2024/04/01 14:34:34;;;;;;;44.40;9.90;;;;;;;21.45;70.20;97992.30;183876;1231;46089;-80
2024/04/01 14:38:37;;;;;;;28.10;9.60;;;;;;;21.39;70.89;97995.14;183477;1231;46012;-81
2024/04/01 14:42:38;;;;;;;34.20;8.40;;;;;;;21.34;72.18;98002.55;183710;1231;46194;-81
2024/04/01 14:46:40;;;;;;;36.80;11.90;;;;;;;21.22;72.80;98002.84;184114;1235;58475;-81
2024/04/01 14:50:43;;;;;;;34.50;8.90;;;;;;;21.15;73.45;98010.59;183607;1232;46433;-81
2024/04/01 14:54:45;;;;;;;35.70;9.80;;;;;;;21.06;73.87;98015.34;183613;1236;46054;-81
2024/04/01 14:58:47;;;;;;;54.30;11.70;;;;;;;21.03;74.21;98024.64;183633;1235;46101;-80
2024/04/01 15:02:56;;;;;;;42.50;9.00;;;;;;;21.00;74.26;98033.54;183191;1231;46014;-81
2024/04/01 15:06:58;;;;;;;65.40;14.00;;;;;;;21.02;74.89;98044.19;182757;1231;57856;-82
2024/04/01 15:11:04;;;;;;;32.10;10.30;;;;;;;21.01;74.64;98048.18;182788;1235;46853;-80
2024/04/01 15:15:06;;;;;;;;;;;;;;;21.01;74.17;98051.64;183290;1231;46031;-81
2024/04/01 15:19:08;;;;;;;36.50;4.50;;;;;;;20.75;74.59;98103.77;182747;1231;45806;-81
2024/04/01 15:23:10;;;;;;;18.40;5.80;;;;;;;19.71;78.54;98074.98;183067;1231;46027;-81
2024/04/01 15:27:12;;;;;;;8.50;3.30;;;;;;;18.87;84.18;98090.22;182922;1231;58743;-81
2024/04/01 15:31:17;;;;;;;16.10;3.10;;;;;;;18.37;89.03;98085.48;183891;1235;46127;-82
2024/04/01 15:35:19;;;;;;;12.40;2.70;;;;;;;18.19;92.32;98117.48;182874;1232;46198;-81
2024/04/01 15:39:22;;;;;;;8.60;3.40;;;;;;;18.06;94.84;98141.70;182642;1235;46111;-81
2024/04/01 15:43:24;;;;;;;4.80;2.50;;;;;;;17.87;96.34;98150.45;182838;1232;46014;-81
2024/04/01 15:47:36;;;;;;;12.80;3.00;;;;;;;17.59;97.51;98155.69;182638;1231;58004;-81
2024/04/01 15:51:42;;;;;;;9.10;1.90;;;;;;;17.18;96.69;98173.63;182771;1231;45951;-81
2024/04/01 15:55:44;;;;;;;;;;;;;;;17.00;97.35;98187.65;183418;1235;46110;-81
2024/04/01 15:59:45;;;;;;;6.60;1.90;;;;;;;16.75;97.83;98192.95;182909;1231;45819;-81
2024/04/01 16:03:48;;;;;;;4.40;1.60;;;;;;;16.63;98.85;98206.52;183080;1235;45578;-80
2024/04/01 16:07:50;;;;;;;6.40;2.00;;;;;;;16.55;98.28;98232.39;182669;1231;58696;-81
2024/04/01 16:11:53;;;;;;;6.30;2.90;;;;;;;16.46;98.36;98240.60;183202;1231;46020;-81
2024/04/01 16:15:56;;;;;;;4.60;1.80;;;;;;;16.39;98.45;98240.52;183218;1235;45970;-81
2024/04/01 16:20:03;;;;;;;8.30;2.50;;;;;;;16.34;98.30;98236.74;182960;1234;46116;-81
2024/04/01 16:24:07;;;;;;;8.40;2.10;;;;;;;16.26;97.99;98225.14;182609;1235;46293;-81
2024/04/01 16:28:14;;;;;;;3.80;1.50;;;;;;;16.19;98.64;98209.36;183244;1237;58621;-80
2024/04/01 16:32:18;;;;;;;4.40;1.90;;;;;;;16.16;98.70;98227.79;182541;1231;46024;-80
2024/04/01 16:36:19;;;;;;;9.70;2.00;;;;;;;16.15;99.69;98283.86;183381;1232;46006;-81
2024/04/01 16:40:45;;;;;;;12.50;3.60;;;;;;;16.10;99.68;98344.44;182176;1233;45987;-81
2024/04/01 16:44:47;;;;;;;6.60;2.70;;;;;;;15.98;100.00;98319.27;182555;1236;46028;-81
2024/04/01 16:48:48;;;;;;;4.70;1.70;;;;;;;15.83;100.00;98311.71;182474;1231;58124;-81
2024/04/01 16:52:51;;;;;;;8.10;2.20;;;;;;;15.70;100.00;98296.88;182907;1231;46171;-81
2024/04/01 16:56:54;;;;;;;6.30;2.00;;;;;;;15.60;100.00;98287.54;182331;1231;46074;-83
2024/04/01 17:00:56;;;;;;;10.20;2.90;;;;;;;15.51;100.00;98274.05;182555;1235;46131;-81
2024/04/01 17:04:57;;;;;;;4.80;2.10;;;;;;;15.39;100.00;98270.40;182686;1235;46087;-81
2024/04/01 17:09:04;;;;;;;6.40;2.30;;;;;;;15.32;100.00;98281.41;183301;1232;58600;-81
2024/04/01 17:13:09;;;;;;;5.30;2.20;;;;;;;15.25;100.00;98302.55;182895;1232;46408;-82
2024/04/01 17:17:12;;;;;;;6.30;2.70;;;;;;;15.22;100.00;98310.41;182548;1231;45995;-81
2024/04/01 17:21:16;;;;;;;8.00;2.50;;;;;;;15.21;100.00;98329.65;183028;1235;46097;-82
2024/04/01 17:25:19;;;;;;;6.60;1.70;;;;;;;15.18;100.00;98372.66;182393;1231;45999;-81
2024/04/01 17:29:22;;;;;;;4.80;2.40;;;;;;;15.16;100.00;98384.52;182462;1236;57779;-82
2024/04/01 17:33:26;;;;;;;6.10;1.60;;;;;;;15.09;100.00;98378.16;182724;1236;46394;-82
2024/04/01 17:37:28;;;;;;;7.90;2.70;;;;;;;15.05;100.00;98395.57;183173;1233;44090;-83
2024/04/01 17:41:32;;;;;;;6.50;2.30;;;;;;;15.04;100.00;98414.10;182787;1236;46094;-83
2024/04/01 17:45:33;;;;;;;14.40;2.70;;;;;;;15.03;100.00;98420.39;182394;1232;45960;-83
2024/04/01 17:49:36;;;;;;;2.60;2.10;;;;;;;14.98;100.00;98406.70;182554;1236;58240;-82
2024/04/01 17:53:38;;;;;;;4.30;1.90;;;;;;;14.93;100.00;98392.90;182677;1236;45999;-82
2024/04/01 17:57:43;;;;;;;6.50;2.60;;;;;;;14.79;100.00;98386.41;183274;1232;46110;-81
2024/04/01 18:01:46;;;;;;;6.60;2.60;;;;;;;14.70;100.00;98373.89;182877;1237;46036;-81
2024/04/01 18:05:48;;;;;;;2.70;2.20;;;;;;;14.70;100.00;98372.94;182749;1236;46082;-83
2024/04/01 18:09:50;;;;;;;3.30;2.00;;;;;;;14.67;100.00;98372.29;182435;1237;59326;-83
2024/04/01 18:13:52;;;;;;;5.40;2.70;;;;;;;14.58;100.00;98384.81;182657;1232;235755;-80
2024/04/01 18:17:53;;;;;;;6.80;1.90;;;;;;;14.50;100.00;98401.40;181870;1238;46097;-81
2024/04/01 18:21:55;;;;;;;3.60;2.70;;;;;;;14.39;100.00;98411.02;183114;1232;46146;-81
2024/04/01 18:25:58;;;;;;;5.50;1.70;;;;;;;14.30;100.00;98416.71;182997;1232;46762;-82
2024/04/01 18:30:01;;;;;;;5.40;2.40;;;;;;;14.24;100.00;98423.22;182536;1232;58034;-85
2024/04/01 18:34:03;;;;;;;10.30;3.10;;;;;;;14.19;100.00;98438.13;182695;1232;46106;-84
2024/04/01 18:38:05;;;;;;;6.20;2.30;;;;;;;14.14;100.00;98444.74;182669;1232;46119;-85